SLLP/LPB METAR and TAF weather

Enter ICAO airport designator
Station Type Date Time Source
SLLP METAR 2020/09/18 20:00 UTC NOAA

SLLP 182000Z 12007KT 9999 VCTS SCT017 FEW020CB BKN070 09/04 Q1035


Station Type Date Time Source
SLLP Decoded METAR 2020/09/18 20:00 UTC NOAA

La Paz / Alto, Bolivia (SLLP) 16-31S 068-11W 4038M
Sep 18, 2020 - 04:00 PM EDT / 2020.09.18 2000 UTC
Wind: from the ESE (120 degrees) at 8 MPH (7 KT):0
Visibility: greater than 7 mile(s):0
Sky conditions: mostly cloudy
Weather: thunder in the vicinity; Cumulonimbus clouds observed
Temperature: 48 F (9 C)
Dew Point: 39 F (4 C)
Relative Humidity: 70%
Pressure (altimeter): 30.56 in. Hg (1035 hPa)
ob: SLLP 182000Z 12007KT 9999 VCTS SCT017 FEW020CB BKN070 09/04 Q1035
cycle: 20

Station Type Date Time Source
SLLP TAF 2020/09/18 18:23 UTC NOAA

TAF SLLP 181600Z 1818/1918 13010KT 9999 SCT017 FEW020CB SCT070 TX10/1820Z TNM01/1910Z
TEMPO 1819/1821 VCTSSH
BECMG 1823/1903 07005KT 3000E VCFG FEW003
BECMG 1914/1916 14010KT

Example: see airport list